GLRB

Monrovia/Roberts International

Airport
ICAO code
GLRB
IATA Code
ROB
Summary
ICAO Region
AFI
ICAO Territory
Location

Harbel, Margibi County

Serving
Monrovia
Elevation
31 ft
Coordinates
6° 14' 2" N , 10° 21' 44" W
KCC
Metar
Observation
GLRB 231130Z 02004KT 9999 BKN016 FEW025CB 29/23 Q1013 NOSIG RMK CB/S-SW
Station
Grand Bassa, Roberts Field
Date/Time
2023-03-23 11:30:00
Wind direction
20°
Wind speed
04 kts
Lowest cloud amount
broken clouds
Temperature
29°C
Dew point
23°C
Humidity
70%
QNH
1013 hPa
Weather condition
n/a

International airport serving Monrovia, Liberia.

Climatology

Tropical Monsoon climate (Köppen climate classification Am)

Runways

Designator Length Width Surface Rops
4/22 3353 46 ASP Yes/Yes

Airport map

Aerial View

SKYbrary Partners:

Safety knowledge contributed by: